sensor_id;sensor_type;location;lat;lon;timestamp;pressure;altitude;pressure_sealevel;temperature;humidity
31225;BME280;17847;31.524;74.366;2024-03-06T00:02:02;98873.53;;;10.38;100.00
31225;BME280;17847;31.524;74.366;2024-03-06T00:04:31;98865.56;;;10.52;100.00
31225;BME280;17847;31.524;74.366;2024-03-06T00:07:01;98871.44;;;10.33;100.00
31225;BME280;17847;31.524;74.366;2024-03-06T00:09:30;98876.03;;;10.24;100.00
31225;BME280;17847;31.524;74.366;2024-03-06T00:12:00;98877.44;;;10.42;100.00
31225;BME280;17847;31.524;74.366;2024-03-06T00:14:29;98888.38;;;10.17;100.00
31225;BME280;17847;31.524;74.366;2024-03-06T00:16:59;98878.41;;;10.19;100.00
31225;BME280;17847;31.524;74.366;2024-03-06T00:19:28;98882.44;;;10.30;100.00
31225;BME280;17847;31.524;74.366;2024-03-06T00:21:58;98878.97;;;10.51;100.00
31225;BME280;17847;31.524;74.366;2024-03-06T00:24:27;98889.56;;;10.51;100.00
31225;BME280;17847;31.524;74.366;2024-03-06T00:26:57;98888.44;;;10.39;100.00
31225;BME280;17847;31.524;74.366;2024-03-06T00:29:26;98890.16;;;10.31;100.00
31225;BME280;17847;31.524;74.366;2024-03-06T00:32:00;98879.97;;;10.50;100.00
31225;BME280;17847;31.524;74.366;2024-03-06T00:34:31;98873.56;;;10.59;100.00
31225;BME280;17847;31.524;74.366;2024-03-06T00:37:00;98882.88;;;10.55;100.00
31225;BME280;17847;31.524;74.366;2024-03-06T00:39:30;98890.56;;;10.50;100.00
31225;BME280;17847;31.524;74.366;2024-03-06T00:41:59;98888.88;;;10.42;100.00
31225;BME280;17847;31.524;74.366;2024-03-06T00:44:28;98882.69;;;10.35;100.00
31225;BME280;17847;31.524;74.366;2024-03-06T00:46:59;98879.81;;;10.51;100.00
31225;BME280;17847;31.524;74.366;2024-03-06T00:49:28;98889.31;;;10.46;100.00
31225;BME280;17847;31.524;74.366;2024-03-06T00:51:58;98893.44;;;10.48;100.00
31225;BME280;17847;31.524;74.366;2024-03-06T00:54:28;98898.38;;;10.36;100.00
31225;BME280;17847;31.524;74.366;2024-03-06T00:56:57;98898.88;;;10.25;100.00
31225;BME280;17847;31.524;74.366;2024-03-06T00:59:28;98901.94;;;10.29;100.00
31225;BME280;17847;31.524;74.366;2024-03-06T01:01:57;98907.25;;;10.29;100.00
31225;BME280;17847;31.524;74.366;2024-03-06T01:04:27;98908.41;;;10.41;100.00
31225;BME280;17847;31.524;74.366;2024-03-06T01:06:57;98905.59;;;10.28;100.00
31225;BME280;17847;31.524;74.366;2024-03-06T01:09:27;98902.75;;;10.44;100.00
31225;BME280;17847;31.524;74.366;2024-03-06T01:11:56;98905.97;;;10.40;100.00
31225;BME280;17847;31.524;74.366;2024-03-06T01:14:26;98916.13;;;10.21;100.00
31225;BME280;17847;31.524;74.366;2024-03-06T01:16:55;98912.38;;;10.30;100.00
31225;BME280;17847;31.524;74.366;2024-03-06T01:19:24;98920.00;;;10.40;100.00
31225;BME280;17847;31.524;74.366;2024-03-06T01:21:54;98927.28;;;10.53;100.00
31225;BME280;17847;31.524;74.366;2024-03-06T01:24:23;98929.25;;;10.65;100.00
31225;BME280;17847;31.524;74.366;2024-03-06T01:26:53;98932.03;;;10.57;100.00
31225;BME280;17847;31.524;74.366;2024-03-06T01:29:22;98931.97;;;10.36;100.00
31225;BME280;17847;31.524;74.366;2024-03-06T01:31:51;98933.44;;;10.24;100.00
31225;BME280;17847;31.524;74.366;2024-03-06T01:34:21;98934.06;;;10.11;100.00
31225;BME280;17847;31.524;74.366;2024-03-06T01:36:54;98934.06;;;9.97;100.00
31225;BME280;17847;31.524;74.366;2024-03-06T01:39:23;98932.44;;;10.25;100.00
31225;BME280;17847;31.524;74.366;2024-03-06T01:41:53;98943.84;;;10.25;100.00
31225;BME280;17847;31.524;74.366;2024-03-06T01:44:22;98940.00;;;10.13;100.00
31225;BME280;17847;31.524;74.366;2024-03-06T01:46:51;98944.66;;;10.11;100.00
31225;BME280;17847;31.524;74.366;2024-03-06T01:49:21;98941.00;;;10.12;100.00
31225;BME280;17847;31.524;74.366;2024-03-06T01:52:03;98948.59;;;10.30;100.00
31225;BME280;17847;31.524;74.366;2024-03-06T01:54:33;98949.44;;;10.16;100.00
31225;BME280;17847;31.524;74.366;2024-03-06T01:57:03;98954.25;;;10.27;100.00
31225;BME280;17847;31.524;74.366;2024-03-06T01:59:32;98962.19;;;10.27;100.00
31225;BME280;17847;31.524;74.366;2024-03-06T02:02:05;98959.91;;;10.39;100.00
31225;BME280;17847;31.524;74.366;2024-03-06T02:04:38;98961.72;;;10.53;100.00
31225;BME280;17847;31.524;74.366;2024-03-06T02:07:10;98973.38;;;10.58;100.00
31225;BME280;17847;31.524;74.366;2024-03-06T02:09:40;98973.66;;;10.85;100.00
31225;BME280;17847;31.524;74.366;2024-03-06T02:12:10;98969.34;;;10.98;100.00
31225;BME280;17847;31.524;74.366;2024-03-06T02:14:39;98974.88;;;11.03;100.00
31225;BME280;17847;31.524;74.366;2024-03-06T02:17:09;98970.91;;;11.35;100.00
31225;BME280;17847;31.524;74.366;2024-03-06T02:19:43;98976.88;;;11.37;100.00
31225;BME280;17847;31.524;74.366;2024-03-06T02:22:13;98981.38;;;11.43;100.00
31225;BME280;17847;31.524;74.366;2024-03-06T02:24:48;98987.00;;;11.55;100.00
31225;BME280;17847;31.524;74.366;2024-03-06T02:27:18;98980.06;;;12.09;100.00
31225;BME280;17847;31.524;74.366;2024-03-06T02:29:48;98977.56;;;12.36;99.10
31225;BME280;17847;31.524;74.366;2024-03-06T02:32:17;98989.34;;;12.68;94.75
31225;BME280;17847;31.524;74.366;2024-03-06T02:34:47;98988.00;;;12.98;92.54
31225;BME280;17847;31.524;74.366;2024-03-06T02:37:17;98994.16;;;12.92;92.21
31225;BME280;17847;31.524;74.366;2024-03-06T02:39:47;99000.53;;;13.11;93.58
31225;BME280;17847;31.524;74.366;2024-03-06T02:42:16;99006.34;;;13.54;89.44
31225;BME280;17847;31.524;74.366;2024-03-06T02:44:46;99015.16;;;13.87;87.36
31225;BME280;17847;31.524;74.366;2024-03-06T02:47:15;99000.75;;;14.27;81.40
31225;BME280;17847;31.524;74.366;2024-03-06T02:49:45;99018.50;;;14.66;79.77
31225;BME280;17847;31.524;74.366;2024-03-06T02:52:14;99027.38;;;14.98;77.02
31225;BME280;17847;31.524;74.366;2024-03-06T02:54:44;99030.22;;;15.41;77.70
31225;BME280;17847;31.524;74.366;2024-03-06T02:57:13;99026.47;;;15.80;74.98
31225;BME280;17847;31.524;74.366;2024-03-06T02:59:43;99037.28;;;15.92;76.96
31225;BME280;17847;31.524;74.366;2024-03-06T03:02:12;99028.53;;;16.03;72.54
31225;BME280;17847;31.524;74.366;2024-03-06T03:04:41;99028.78;;;16.01;72.73
31225;BME280;17847;31.524;74.366;2024-03-06T03:07:11;99036.53;;;16.28;71.70
31225;BME280;17847;31.524;74.366;2024-03-06T03:09:41;99031.34;;;16.51;74.35
31225;BME280;17847;31.524;74.366;2024-03-06T03:12:11;99035.78;;;16.39;69.74
31225;BME280;17847;31.524;74.366;2024-03-06T03:14:40;99042.31;;;16.25;74.92
31225;BME280;17847;31.524;74.366;2024-03-06T03:17:10;99053.66;;;16.20;72.59
31225;BME280;17847;31.524;74.366;2024-03-06T03:19:40;99051.22;;;16.18;68.87
31225;BME280;17847;31.524;74.366;2024-03-06T03:22:09;99056.25;;;16.70;67.29
31225;BME280;17847;31.524;74.366;2024-03-06T03:24:41;99057.16;;;16.82;64.48
31225;BME280;17847;31.524;74.366;2024-03-06T03:27:10;99061.38;;;17.08;63.40
31225;BME280;17847;31.524;74.366;2024-03-06T03:29:40;99066.28;;;17.40;62.70
31225;BME280;17847;31.524;74.366;2024-03-06T03:32:10;99067.44;;;17.44;61.67
31225;BME280;17847;31.524;74.366;2024-03-06T03:34:39;99063.97;;;17.14;62.29
31225;BME280;17847;31.524;74.366;2024-03-06T03:37:09;99079.84;;;17.27;61.00
31225;BME280;17847;31.524;74.366;2024-03-06T03:39:39;99070.72;;;17.65;63.81
31225;BME280;17847;31.524;74.366;2024-03-06T03:42:08;99080.28;;;17.54;60.21
31225;BME280;17847;31.524;74.366;2024-03-06T03:44:37;99090.22;;;17.35;60.57
31225;BME280;17847;31.524;74.366;2024-03-06T03:47:08;99088.59;;;17.94;63.23
31225;BME280;17847;31.524;74.366;2024-03-06T03:49:37;99096.56;;;18.35;60.19
31225;BME280;17847;31.524;74.366;2024-03-06T03:52:08;99101.81;;;18.42;55.28
31225;BME280;17847;31.524;74.366;2024-03-06T03:54:37;99101.09;;;18.93;56.17
31225;BME280;17847;31.524;74.366;2024-03-06T03:57:07;99109.44;;;19.20;55.57
31225;BME280;17847;31.524;74.366;2024-03-06T03:59:38;99112.03;;;19.15;55.71
31225;BME280;17847;31.524;74.366;2024-03-06T04:02:09;99109.53;;;18.85;54.87
31225;BME280;17847;31.524;74.366;2024-03-06T04:04:40;99113.69;;;19.04;54.26
31225;BME280;17847;31.524;74.366;2024-03-06T04:07:09;99116.44;;;19.21;52.25
31225;BME280;17847;31.524;74.366;2024-03-06T04:09:39;99109.69;;;19.58;52.84
31225;BME280;17847;31.524;74.366;2024-03-06T04:12:09;99109.69;;;20.03;52.08
31225;BME280;17847;31.524;74.366;2024-03-06T04:14:38;99113.50;;;20.24;48.84
31225;BME280;17847;31.524;74.366;2024-03-06T04:17:08;99105.22;;;20.09;51.63
31225;BME280;17847;31.524;74.366;2024-03-06T04:19:38;99111.00;;;20.51;47.34
31225;BME280;17847;31.524;74.366;2024-03-06T04:22:07;99113.81;;;20.99;47.24
31225;BME280;17847;31.524;74.366;2024-03-06T04:24:36;99113.63;;;20.84;49.07
31225;BME280;17847;31.524;74.366;2024-03-06T04:27:10;99113.28;;;20.26;50.52
31225;BME280;17847;31.524;74.366;2024-03-06T04:29:39;99115.28;;;20.69;50.08
31225;BME280;17847;31.524;74.366;2024-03-06T04:32:09;99115.47;;;21.00;49.29
31225;BME280;17847;31.524;74.366;2024-03-06T04:34:38;99116.28;;;21.01;49.64
31225;BME280;17847;31.524;74.366;2024-03-06T04:37:08;99117.50;;;20.55;44.86
31225;BME280;17847;31.524;74.366;2024-03-06T04:39:37;99118.03;;;21.34;48.97
31225;BME280;17847;31.524;74.366;2024-03-06T04:42:07;99123.75;;;21.37;48.05
31225;BME280;17847;31.524;74.366;2024-03-06T04:44:36;99128.00;;;21.33;47.27
31225;BME280;17847;31.524;74.366;2024-03-06T04:47:06;99123.81;;;21.42;48.02
31225;BME280;17847;31.524;74.366;2024-03-06T04:49:35;99130.88;;;21.48;48.90
31225;BME280;17847;31.524;74.366;2024-03-06T04:52:05;99124.28;;;22.15;44.54
31225;BME280;17847;31.524;74.366;2024-03-06T04:54:35;99131.56;;;22.14;47.23
31225;BME280;17847;31.524;74.366;2024-03-06T04:57:04;99134.50;;;22.08;49.43
31225;BME280;17847;31.524;74.366;2024-03-06T04:59:34;99136.25;;;22.61;45.75
31225;BME280;17847;31.524;74.366;2024-03-06T05:02:03;99137.50;;;22.85;40.56
31225;BME280;17847;31.524;74.366;2024-03-06T05:04:33;99128.69;;;22.63;45.74
31225;BME280;17847;31.524;74.366;2024-03-06T05:07:19;99141.41;;;22.67;41.99
31225;BME280;17847;31.524;74.366;2024-03-06T05:10:06;99132.41;;;22.89;43.64
31225;BME280;17847;31.524;74.366;2024-03-06T05:12:53;99139.41;;;21.62;42.30
31225;BME280;17847;31.524;74.366;2024-03-06T05:15:39;99136.25;;;22.24;42.43
31225;BME280;17847;31.524;74.366;2024-03-06T05:18:25;99140.56;;;22.57;43.06
31225;BME280;17847;31.524;74.366;2024-03-06T05:21:11;99142.84;;;23.22;41.31
31225;BME280;17847;31.524;74.366;2024-03-06T05:23:57;99142.06;;;23.26;41.25
31225;BME280;17847;31.524;74.366;2024-03-06T05:26:42;99151.78;;;22.80;43.34
31225;BME280;17847;31.524;74.366;2024-03-06T05:29:28;99149.28;;;22.69;43.42
31225;BME280;17847;31.524;74.366;2024-03-06T05:32:14;99150.56;;;22.98;38.85
31225;BME280;17847;31.524;74.366;2024-03-06T05:35:00;99150.03;;;23.06;43.02
31225;BME280;17847;31.524;74.366;2024-03-06T05:37:46;99155.56;;;22.43;38.44
31225;BME280;17847;31.524;74.366;2024-03-06T05:40:32;99147.63;;;22.68;39.29
31225;BME280;17847;31.524;74.366;2024-03-06T05:43:23;99152.28;;;22.40;38.59
31225;BME280;17847;31.524;74.366;2024-03-06T05:46:09;99146.75;;;22.57;38.46
31225;BME280;17847;31.524;74.366;2024-03-06T05:48:54;99149.63;;;22.46;36.08
31225;BME280;17847;31.524;74.366;2024-03-06T05:51:40;99136.97;;;22.83;40.22
31225;BME280;17847;31.524;74.366;2024-03-06T05:54:26;99141.56;;;23.40;40.76
31225;BME280;17847;31.524;74.366;2024-03-06T05:57:13;99139.72;;;23.50;43.45
31225;BME280;17847;31.524;74.366;2024-03-06T06:00:00;99133.91;;;23.21;40.22
31225;BME280;17847;31.524;74.366;2024-03-06T06:02:38;99131.41;;;23.05;41.36
31225;BME280;17847;31.524;74.366;2024-03-06T06:05:07;99141.63;;;23.50;38.54
31225;BME280;17847;31.524;74.366;2024-03-06T06:07:51;99137.34;;;23.69;39.99
31225;BME280;17847;31.524;74.366;2024-03-06T06:10:20;99129.66;;;23.36;36.74
31225;BME280;17847;31.524;74.366;2024-03-06T06:12:50;99121.50;;;23.25;36.34
31225;BME280;17847;31.524;74.366;2024-03-06T06:15:19;99134.47;;;23.18;39.39
31225;BME280;17847;31.524;74.366;2024-03-06T06:17:49;99124.34;;;23.61;37.88
31225;BME280;17847;31.524;74.366;2024-03-06T06:20:18;99136.84;;;23.72;38.58
31225;BME280;17847;31.524;74.366;2024-03-06T06:22:48;99133.03;;;23.06;35.07
31225;BME280;17847;31.524;74.366;2024-03-06T06:25:17;99127.38;;;23.07;37.39
31225;BME280;17847;31.524;74.366;2024-03-06T06:27:47;99127.44;;;23.22;37.85
31225;BME280;17847;31.524;74.366;2024-03-06T06:30:18;99121.78;;;23.29;38.78
31225;BME280;17847;31.524;74.366;2024-03-06T06:32:48;99114.28;;;23.46;40.43
31225;BME280;17847;31.524;74.366;2024-03-06T06:35:17;99100.38;;;23.12;34.62
31225;BME280;17847;31.524;74.366;2024-03-06T06:37:47;99101.94;;;23.70;37.74
31225;BME280;17847;31.524;74.366;2024-03-06T06:40:16;99093.84;;;24.11;36.71
31225;BME280;17847;31.524;74.366;2024-03-06T06:42:47;99098.44;;;23.90;33.16
31225;BME280;17847;31.524;74.366;2024-03-06T06:45:19;99103.03;;;23.95;36.06
31225;BME280;17847;31.524;74.366;2024-03-06T06:47:51;99087.06;;;24.08;36.09
31225;BME280;17847;31.524;74.366;2024-03-06T06:50:20;99092.44;;;23.58;33.52
31225;BME280;17847;31.524;74.366;2024-03-06T06:52:54;99081.09;;;23.81;32.84
31225;BME280;17847;31.524;74.366;2024-03-06T06:55:24;99085.22;;;24.24;35.77
31225;BME280;17847;31.524;74.366;2024-03-06T06:57:53;99083.38;;;23.17;31.25
31225;BME280;17847;31.524;74.366;2024-03-06T07:00:23;99073.97;;;23.40;34.65
31225;BME280;17847;31.524;74.366;2024-03-06T07:02:53;99075.44;;;23.93;34.00
31225;BME280;17847;31.524;74.366;2024-03-06T07:05:23;99071.91;;;23.77;32.67
31225;BME280;17847;31.524;74.366;2024-03-06T07:07:53;99054.28;;;23.59;35.80
31225;BME280;17847;31.524;74.366;2024-03-06T07:10:22;99046.78;;;22.94;34.45
31225;BME280;17847;31.524;74.366;2024-03-06T07:12:52;99042.38;;;23.50;36.50
31225;BME280;17847;31.524;74.366;2024-03-06T07:15:21;99039.44;;;23.87;32.97
31225;BME280;17847;31.524;74.366;2024-03-06T07:17:51;99042.16;;;23.87;35.10
31225;BME280;17847;31.524;74.366;2024-03-06T07:20:20;99050.53;;;23.70;35.62
31225;BME280;17847;31.524;74.366;2024-03-06T07:22:50;99038.34;;;22.75;29.63
31225;BME280;17847;31.524;74.366;2024-03-06T07:25:20;99029.06;;;22.61;29.38
31225;BME280;17847;31.524;74.366;2024-03-06T07:27:50;99023.84;;;22.97;33.12
31225;BME280;17847;31.524;74.366;2024-03-06T07:30:19;99024.25;;;23.41;37.00
31225;BME280;17847;31.524;74.366;2024-03-06T07:32:49;99021.59;;;23.71;34.11
31225;BME280;17847;31.524;74.366;2024-03-06T07:35:19;99011.56;;;23.56;34.47
31225;BME280;17847;31.524;74.366;2024-03-06T07:37:48;99009.41;;;23.73;36.65
31225;BME280;17847;31.524;74.366;2024-03-06T07:40:18;99005.34;;;23.51;31.14
31225;BME280;17847;31.524;74.366;2024-03-06T07:42:47;99007.53;;;23.49;30.08
31225;BME280;17847;31.524;74.366;2024-03-06T07:45:17;99004.50;;;23.40;32.12
31225;BME280;17847;31.524;74.366;2024-03-06T07:47:46;98998.28;;;23.35;33.18
31225;BME280;17847;31.524;74.366;2024-03-06T07:50:17;98989.69;;;23.58;32.76
31225;BME280;17847;31.524;74.366;2024-03-06T07:52:49;98980.50;;;23.54;31.67
31225;BME280;17847;31.524;74.366;2024-03-06T07:55:19;98976.16;;;23.68;34.62
31225;BME280;17847;31.524;74.366;2024-03-06T07:57:50;98972.59;;;23.27;29.80
31225;BME280;17847;31.524;74.366;2024-03-06T08:00:19;98975.59;;;23.41;29.39
31225;BME280;17847;31.524;74.366;2024-03-06T08:02:49;98968.88;;;23.58;33.23
31225;BME280;17847;31.524;74.366;2024-03-06T08:05:19;98965.50;;;23.06;30.42
31225;BME280;17847;31.524;74.366;2024-03-06T08:07:50;98953.38;;;23.18;33.20
31225;BME280;17847;31.524;74.366;2024-03-06T08:10:19;98957.16;;;23.33;34.65
31225;BME280;17847;31.524;74.366;2024-03-06T08:12:49;98950.75;;;23.44;34.18
31225;BME280;17847;31.524;74.366;2024-03-06T08:15:18;98953.66;;;23.37;35.68
31225;BME280;17847;31.524;74.366;2024-03-06T08:17:49;98952.00;;;23.11;32.95
31225;BME280;17847;31.524;74.366;2024-03-06T08:20:20;98953.94;;;23.25;32.04
31225;BME280;17847;31.524;74.366;2024-03-06T08:22:50;98944.69;;;22.96;30.86
31225;BME280;17847;31.524;74.366;2024-03-06T08:25:19;98942.22;;;22.74;30.48
31225;BME280;17847;31.524;74.366;2024-03-06T08:27:49;98934.13;;;22.90;35.24
31225;BME280;17847;31.524;74.366;2024-03-06T08:30:18;98930.66;;;22.99;32.45
31225;BME280;17847;31.524;74.366;2024-03-06T08:32:47;98920.13;;;23.03;34.92
31225;BME280;17847;31.524;74.366;2024-03-06T08:35:17;98919.19;;;22.67;32.07
31225;BME280;17847;31.524;74.366;2024-03-06T08:37:50;98916.91;;;22.33;31.63
31225;BME280;17847;31.524;74.366;2024-03-06T08:40:20;98906.75;;;22.61;34.24
31225;BME280;17847;31.524;74.366;2024-03-06T08:42:50;98907.91;;;22.80;33.77
31225;BME280;17847;31.524;74.366;2024-03-06T08:45:20;98907.94;;;22.85;35.50
31225;BME280;17847;31.524;74.366;2024-03-06T08:47:49;98898.47;;;22.82;36.83
31225;BME280;17847;31.524;74.366;2024-03-06T08:50:19;98888.75;;;22.81;32.75
31225;BME280;17847;31.524;74.366;2024-03-06T08:52:49;98901.69;;;22.79;31.34
31225;BME280;17847;31.524;74.366;2024-03-06T08:55:18;98892.78;;;22.84;36.19
31225;BME280;17847;31.524;74.366;2024-03-06T08:57:48;98891.19;;;22.78;36.20
31225;BME280;17847;31.524;74.366;2024-03-06T09:00:19;98890.09;;;22.74;34.38
31225;BME280;17847;31.524;74.366;2024-03-06T09:02:48;98875.78;;;22.73;34.85
31225;BME280;17847;31.524;74.366;2024-03-06T09:05:19;98873.25;;;22.62;40.13
31225;BME280;17847;31.524;74.366;2024-03-06T09:07:49;98869.06;;;22.19;32.55
31225;BME280;17847;31.524;74.366;2024-03-06T09:10:19;98867.44;;;22.18;33.12
31225;BME280;17847;31.524;74.366;2024-03-06T09:12:48;98860.19;;;22.23;37.63
31225;BME280;17847;31.524;74.366;2024-03-06T09:15:17;98860.25;;;22.33;36.98
31225;BME280;17847;31.524;74.366;2024-03-06T09:17:48;98859.09;;;22.19;36.33
31225;BME280;17847;31.524;74.366;2024-03-06T09:20:17;98851.88;;;22.30;35.04
31225;BME280;17847;31.524;74.366;2024-03-06T09:22:47;98852.47;;;22.47;35.87
31225;BME280;17847;31.524;74.366;2024-03-06T09:25:17;98841.41;;;22.54;37.47
31225;BME280;17847;31.524;74.366;2024-03-06T09:27:47;98839.75;;;22.37;33.91
31225;BME280;17847;31.524;74.366;2024-03-06T09:30:16;98839.47;;;22.34;35.75
31225;BME280;17847;31.524;74.366;2024-03-06T09:32:45;98834.59;;;22.26;34.98
31225;BME280;17847;31.524;74.366;2024-03-06T09:35:15;98823.78;;;22.26;35.25
31225;BME280;17847;31.524;74.366;2024-03-06T09:37:46;98824.06;;;22.29;32.33
31225;BME280;17847;31.524;74.366;2024-03-06T09:40:23;98818.94;;;22.33;34.19
31225;BME280;17847;31.524;74.366;2024-03-06T09:42:53;98817.81;;;22.19;34.95
31225;BME280;17847;31.524;74.366;2024-03-06T09:45:23;98820.78;;;22.12;35.04
31225;BME280;17847;31.524;74.366;2024-03-06T09:47:52;98811.34;;;22.20;36.38
31225;BME280;17847;31.524;74.366;2024-03-06T09:50:24;98807.84;;;22.24;33.76
31225;BME280;17847;31.524;74.366;2024-03-06T09:52:56;98810.81;;;22.13;34.73
31225;BME280;17847;31.524;74.366;2024-03-06T09:55:25;98808.91;;;22.08;34.52
31225;BME280;17847;31.524;74.366;2024-03-06T09:57:56;98801.81;;;21.97;32.61
31225;BME280;17847;31.524;74.366;2024-03-06T10:00:25;98800.75;;;21.98;32.52
31225;BME280;17847;31.524;74.366;2024-03-06T10:02:58;98800.22;;;22.01;33.37
31225;BME280;17847;31.524;74.366;2024-03-06T10:05:32;98797.69;;;21.84;33.16
31225;BME280;17847;31.524;74.366;2024-03-06T10:08:04;98801.28;;;22.00;36.05
31225;BME280;17847;31.524;74.366;2024-03-06T10:10:34;98802.38;;;21.99;34.04
31225;BME280;17847;31.524;74.366;2024-03-06T10:13:04;98798.09;;;22.08;35.23
31225;BME280;17847;31.524;74.366;2024-03-06T10:15:36;98798.06;;;21.98;33.41
31225;BME280;17847;31.524;74.366;2024-03-06T10:18:15;98795.38;;;21.98;33.96
31225;BME280;17847;31.524;74.366;2024-03-06T10:20:48;98793.75;;;22.02;33.00
31225;BME280;17847;31.524;74.366;2024-03-06T10:23:18;98791.16;;;21.70;32.53
31225;BME280;17847;31.524;74.366;2024-03-06T10:25:48;98791.22;;;21.80;34.67
31225;BME280;17847;31.524;74.366;2024-03-06T10:28:27;98786.09;;;21.84;34.79
31225;BME280;17847;31.524;74.366;2024-03-06T10:31:03;98785.06;;;21.90;35.58
31225;BME280;17847;31.524;74.366;2024-03-06T10:33:37;98781.25;;;21.81;34.92
31225;BME280;17847;31.524;74.366;2024-03-06T10:36:10;98784.44;;;21.78;35.21
31225;BME280;17847;31.524;74.366;2024-03-06T10:38:44;98784.22;;;21.84;34.04
31225;BME280;17847;31.524;74.366;2024-03-06T10:41:14;98782.03;;;21.76;32.50
31225;BME280;17847;31.524;74.366;2024-03-06T10:43:50;98780.66;;;21.74;33.35
31225;BME280;17847;31.524;74.366;2024-03-06T10:46:20;98781.50;;;21.79;33.54
31225;BME280;17847;31.524;74.366;2024-03-06T10:48:51;98781.47;;;21.74;34.89
31225;BME280;17847;31.524;74.366;2024-03-06T10:51:22;98776.63;;;21.76;36.07
31225;BME280;17847;31.524;74.366;2024-03-06T10:53:53;98776.00;;;21.64;32.99
31225;BME280;17847;31.524;74.366;2024-03-06T10:56:25;98779.00;;;21.63;34.50
31225;BME280;17847;31.524;74.366;2024-03-06T10:58:56;98770.63;;;21.64;35.20
31225;BME280;17847;31.524;74.366;2024-03-06T11:01:28;98774.38;;;21.58;37.51
31225;BME280;17847;31.524;74.366;2024-03-06T11:04:01;98769.00;;;21.58;38.74
31225;BME280;17847;31.524;74.366;2024-03-06T11:06:33;98768.97;;;21.53;35.88
31225;BME280;17847;31.524;74.366;2024-03-06T11:09:03;98765.94;;;21.44;35.20
31225;BME280;17847;31.524;74.366;2024-03-06T11:11:32;98767.50;;;21.35;34.96
31225;BME280;17847;31.524;74.366;2024-03-06T11:14:04;98753.97;;;21.25;35.48
31225;BME280;17847;31.524;74.366;2024-03-06T11:17:10;98749.66;;;21.19;36.11
31225;BME280;17847;31.524;74.366;2024-03-06T11:28:27;98743.56;;;21.02;38.90
31225;BME280;17847;31.524;74.366;2024-03-06T11:31:07;98739.78;;;21.03;38.67
31225;BME280;17847;31.524;74.366;2024-03-06T11:33:52;98737.59;;;20.95;36.60
31225;BME280;17847;31.524;74.366;2024-03-06T11:36:27;98730.28;;;20.90;36.23
31225;BME280;17847;31.524;74.366;2024-03-06T11:41:51;98731.63;;;20.88;35.07
31225;BME280;17847;31.524;74.366;2024-03-06T11:44:21;98724.31;;;20.83;38.86
31225;BME280;17847;31.524;74.366;2024-03-06T11:47:05;98738.28;;;20.80;35.73
31225;BME280;17847;31.524;74.366;2024-03-06T11:49:37;98729.09;;;20.76;37.73
31225;BME280;17847;31.524;74.366;2024-03-06T11:52:08;98729.63;;;20.73;36.52
31225;BME280;17847;31.524;74.366;2024-03-06T11:54:38;98733.88;;;20.69;37.79
31225;BME280;17847;31.524;74.366;2024-03-06T11:57:08;98743.78;;;20.63;39.50
31225;BME280;17847;31.524;74.366;2024-03-06T11:59:39;98742.91;;;20.53;36.86
31225;BME280;17847;31.524;74.366;2024-03-06T12:02:09;98748.25;;;20.48;37.33
31225;BME280;17847;31.524;74.366;2024-03-06T12:04:40;98737.13;;;20.39;36.52
31225;BME280;17847;31.524;74.366;2024-03-06T12:07:10;98740.06;;;20.38;36.99
31225;BME280;17847;31.524;74.366;2024-03-06T12:09:39;98745.66;;;20.31;37.77
31225;BME280;17847;31.524;74.366;2024-03-06T12:12:11;98735.06;;;20.25;38.72
31225;BME280;17847;31.524;74.366;2024-03-06T12:14:41;98743.09;;;20.19;38.23
31225;BME280;17847;31.524;74.366;2024-03-06T12:17:14;98737.91;;;20.13;38.63
31225;BME280;17847;31.524;74.366;2024-03-06T12:19:44;98737.88;;;20.08;38.17
31225;BME280;17847;31.524;74.366;2024-03-06T12:22:14;98740.25;;;20.04;39.27
31225;BME280;17847;31.524;74.366;2024-03-06T12:25:00;98737.50;;;19.99;40.22
31225;BME280;17847;31.524;74.366;2024-03-06T12:27:29;98740.94;;;19.95;37.40
31225;BME280;17847;31.524;74.366;2024-03-06T12:30:01;98742.75;;;19.89;39.54
31225;BME280;17847;31.524;74.366;2024-03-06T12:32:33;98743.19;;;19.81;39.49
31225;BME280;17847;31.524;74.366;2024-03-06T12:35:03;98745.53;;;19.72;40.37
31225;BME280;17847;31.524;74.366;2024-03-06T12:37:32;98753.75;;;19.66;40.64
31225;BME280;17847;31.524;74.366;2024-03-06T12:40:03;98751.28;;;19.59;42.66
31225;BME280;17847;31.524;74.366;2024-03-06T12:42:42;98749.03;;;19.51;42.23
31225;BME280;17847;31.524;74.366;2024-03-06T12:45:13;98753.22;;;19.47;41.65
31225;BME280;17847;31.524;74.366;2024-03-06T12:47:43;98749.41;;;19.43;41.21
31225;BME280;17847;31.524;74.366;2024-03-06T12:50:14;98756.59;;;19.38;43.80
31225;BME280;17847;31.524;74.366;2024-03-06T12:52:43;98753.81;;;19.33;44.23
31225;BME280;17847;31.524;74.366;2024-03-06T12:55:16;98760.91;;;19.22;44.24
31225;BME280;17847;31.524;74.366;2024-03-06T12:57:48;98753.88;;;19.16;45.78
31225;BME280;17847;31.524;74.366;2024-03-06T13:00:20;98761.19;;;19.04;46.23
31225;BME280;17847;31.524;74.366;2024-03-06T13:02:50;98761.38;;;18.97;46.45
31225;BME280;17847;31.524;74.366;2024-03-06T13:05:20;98757.22;;;18.90;46.92
31225;BME280;17847;31.524;74.366;2024-03-06T13:07:49;98759.56;;;18.86;49.23
31225;BME280;17847;31.524;74.366;2024-03-06T13:10:19;98761.59;;;18.79;49.36
31225;BME280;17847;31.524;74.366;2024-03-06T13:12:50;98753.22;;;18.75;50.44
31225;BME280;17847;31.524;74.366;2024-03-06T13:15:23;98756.31;;;18.67;50.81
31225;BME280;17847;31.524;74.366;2024-03-06T13:17:52;98761.34;;;18.64;49.34
31225;BME280;17847;31.524;74.366;2024-03-06T13:20:22;98768.50;;;18.58;49.13
31225;BME280;17847;31.524;74.366;2024-03-06T13:22:51;98765.75;;;18.53;49.75